Time;durP1;ratioP1;P1;durP2;ratioP2;P2;SDS_P1;SDS_P2;PMS_P1;PMS_P2;Temp;Humidity;BMP_temperature;BMP_pressure;BME280_temperature;BME280_humidity;BME280_pressure;Samples;Min_cycle;Max_cycle;Signal;HPM_P1;HPM_P2
2023/07/15 00:01:09;;;;;;;3.90;3.60;;;27.10;44.30;;;;;;5055447;28;20175;-68
2023/07/15 00:03:34;;;;;;;3.47;2.80;;;27.10;44.40;;;;;;5055569;28;20201;-67
2023/07/15 00:06:01;;;;;;;4.60;3.50;;;27.10;44.40;;;;;;5055591;28;20945;-68
2023/07/15 00:08:27;;;;;;;4.37;3.97;;;27.10;44.40;;;;;;5055266;28;20194;-67
2023/07/15 00:10:53;;;;;;;3.57;3.13;;;27.10;44.40;;;;;;5055412;28;20857;-67
2023/07/15 00:13:19;;;;;;;3.40;3.10;;;27.10;44.50;;;;;;5055261;28;20209;-67
2023/07/15 00:15:50;;;;;;;4.30;3.40;;;27.10;44.50;;;;;;5055470;28;20402;-67
2023/07/15 00:18:16;;;;;;;3.83;3.30;;;27.10;44.50;;;;;;5055463;28;20206;-67
2023/07/15 00:20:42;;;;;;;3.13;2.83;;;27.10;44.50;;;;;;5055156;28;20417;-67
2023/07/15 00:23:19;;;;;;;7.10;3.60;;;27.10;44.60;;;;;;5054992;28;20432;-68
2023/07/15 00:25:45;;;;;;;3.73;3.07;;;27.10;44.60;;;;;;5055146;28;20766;-67
2023/07/15 00:28:11;;;;;;;3.70;2.93;;;27.10;44.60;;;;;;5054821;28;20425;-68
2023/07/15 00:30:37;;;;;;;3.17;2.87;;;27.10;44.70;;;;;;5054989;28;20585;-67
2023/07/15 00:33:03;;;;;;;4.00;3.47;;;27.10;44.70;;;;;;5055025;28;20185;-68
2023/07/15 00:35:30;;;;;;;4.30;3.57;;;27.10;44.70;;;;;;5054996;28;20898;-67
2023/07/15 00:37:59;;;;;;;3.43;3.13;;;27.10;44.70;;;;;;5054788;28;20996;-68
2023/07/15 00:40:26;;;;;;;3.43;3.13;;;27.10;44.80;;;;;;5054696;28;20422;-68
2023/07/15 00:43:30;;;;;;;4.07;3.67;;;27.10;44.80;;;;;;5054393;28;20441;-67
2023/07/15 00:46:17;;;;;;;3.27;2.97;;;27.10;44.80;;;;;;5055009;28;20424;-67
2023/07/15 00:48:57;;;;;;;4.87;3.53;;;27.10;44.90;;;;;;5054488;28;20429;-67
2023/07/15 00:51:25;;;;;;;3.27;2.87;;;27.00;44.90;;;;;;5054589;28;20469;-68
2023/07/15 00:53:53;;;;;;;5.13;3.40;;;27.00;44.90;;;;;;5054671;28;20778;-68
2023/07/15 00:56:19;;;;;;;5.53;3.90;;;27.10;45.00;;;;;;5054374;28;20926;-68
2023/07/15 00:58:45;;;;;;;4.63;3.37;;;27.10;45.00;;;;;;5054232;28;20437;-67
2023/07/15 01:01:11;;;;;;;4.63;3.77;;;27.10;45.00;;;;;;5054503;28;20437;-67
2023/07/15 01:03:40;;;;;;;3.57;3.23;;;27.00;45.00;;;;;;5054384;28;20445;-67
2023/07/15 01:06:06;;;;;;;3.80;3.30;;;27.10;45.10;;;;;;5054488;28;20297;-67
2023/07/15 01:08:31;;;;;;;3.50;2.77;;;27.00;45.00;;;;;;5054094;28;20437;-67
2023/07/15 01:10:57;;;;;;;2.83;2.63;;;27.00;45.00;;;;;;5054296;28;20463;-67
2023/07/15 01:13:23;;;;;;;3.07;2.83;;;27.10;45.10;;;;;;5054189;28;20167;-67
2023/07/15 01:15:48;;;;;;;3.87;3.10;;;27.10;45.20;;;;;;5054560;28;20838;-67
2023/07/15 01:18:14;;;;;;;3.47;3.10;;;27.10;45.20;;;;;;5054284;28;20567;-67
2023/07/15 01:20:40;;;;;;;3.10;2.90;;;27.10;45.20;;;;;;5054311;28;20172;-67
2023/07/15 01:23:05;;;;;;;3.87;3.23;;;27.10;45.20;;;;;;5053975;28;20701;-67
2023/07/15 01:25:31;;;;;;;3.27;2.97;;;27.10;45.20;;;;;;5053933;28;20206;-67
2023/07/15 01:27:56;;;;;;;3.37;3.07;;;27.10;45.20;;;;;;5053911;28;20672;-67
2023/07/15 01:30:22;;;;;;;3.33;2.90;;;27.10;45.30;;;;;;5053879;28;20201;-66
2023/07/15 01:32:48;;;;;;;3.60;3.23;;;27.10;45.30;;;;;;5052578;28;20182;-67
2023/07/15 01:35:14;;;;;;;4.90;3.07;;;27.10;45.30;;;;;;5052619;28;20202;-67
2023/07/15 01:37:40;;;;;;;3.30;3.00;;;27.10;45.30;;;;;;5053582;28;20492;-67
2023/07/15 01:40:09;;;;;;;3.67;3.27;;;27.10;45.30;;;;;;5053734;28;20632;-67
2023/07/15 01:42:34;;;;;;;3.33;3.03;;;27.00;45.30;;;;;;5054144;28;20210;-68
2023/07/15 01:45:00;;;;;;;6.20;3.20;;;27.00;45.30;;;;;;5053873;28;20995;-68
2023/07/15 01:47:25;;;;;;;3.70;3.10;;;27.00;45.40;;;;;;5053574;28;20199;-67
2023/07/15 01:49:51;;;;;;;4.07;3.40;;;27.10;45.50;;;;;;5053471;28;20210;-67
2023/07/15 01:52:17;;;;;;;3.73;3.40;;;27.10;45.50;;;;;;5053607;28;20630;-67
2023/07/15 01:54:42;;;;;;;3.90;3.50;;;27.00;45.40;;;;;;5052529;28;20171;-67
2023/07/15 01:57:09;;;;;;;3.23;2.93;;;27.00;45.50;;;;;;5053384;28;20205;-67
2023/07/15 01:59:35;;;;;;;3.20;2.90;;;27.00;45.50;;;;;;5053260;28;20186;-67
2023/07/15 02:02:00;;;;;;;3.67;3.37;;;27.00;45.50;;;;;;5053185;28;20416;-67
2023/07/15 02:04:26;;;;;;;3.77;3.40;;;27.10;45.60;;;;;;5053133;28;20175;-67
2023/07/15 02:06:51;;;;;;;3.97;3.30;;;27.00;45.60;;;;;;5052802;28;20256;-67
2023/07/15 02:09:18;;;;;;;3.13;2.70;;;27.00;45.60;;;;;;5052905;28;20182;-67
2023/07/15 02:11:43;;;;;;;3.47;3.17;;;27.00;45.60;;;;;;5052944;28;20163;-67
2023/07/15 02:14:09;;;;;;;4.90;3.20;;;27.00;45.60;;;;;;5053069;28;20408;-67
2023/07/15 02:16:35;;;;;;;3.20;2.90;;;27.00;45.60;;;;;;5053217;28;20171;-66
2023/07/15 02:19:01;;;;;;;3.30;3.00;;;27.00;45.60;;;;;;5052904;28;20229;-67
2023/07/15 02:21:27;;;;;;;3.53;3.23;;;27.00;45.60;;;;;;5052878;28;20608;-67
2023/07/15 02:23:52;;;;;;;3.60;3.30;;;27.00;45.60;;;;;;5052887;28;20504;-67
2023/07/15 02:26:18;;;;;;;3.47;2.90;;;27.00;45.70;;;;;;5052704;28;20183;-67
2023/07/15 02:28:44;;;;;;;4.13;3.13;;;27.00;45.70;;;;;;5052746;28;20290;-67
2023/07/15 02:31:09;;;;;;;3.47;3.07;;;27.00;45.70;;;;;;5052587;28;20202;-68
2023/07/15 02:33:35;;;;;;;4.90;3.33;;;27.00;45.60;;;;;;5052833;28;20206;-67
2023/07/15 02:36:01;;;;;;;3.67;3.27;;;27.00;45.70;;;;;;5052642;28;20620;-68
2023/07/15 02:38:26;;;;;;;3.50;3.20;;;27.00;45.70;;;;;;5052514;28;20183;-68
2023/07/15 02:40:54;;;;;;;3.20;2.90;;;27.00;45.70;;;;;;5052663;28;20409;-67
2023/07/15 02:43:20;;;;;;;3.97;3.57;;;27.00;45.70;;;;;;5052495;28;20596;-68
2023/07/15 02:45:48;;;;;;;3.60;2.80;;;27.00;45.70;;;;;;5052472;28;20420;-68
2023/07/15 02:48:13;;;;;;;3.50;3.20;;;27.00;45.70;;;;;;5052561;28;20575;-68
2023/07/15 02:50:40;;;;;;;3.20;2.77;;;27.00;45.70;;;;;;5052413;28;20471;-68
2023/07/15 02:53:05;;;;;;;3.07;2.73;;;27.00;45.70;;;;;;5052630;28;20624;-68
2023/07/15 02:55:31;;;;;;;3.50;3.20;;;27.00;45.70;;;;;;5053462;28;20405;-67
2023/07/15 02:57:57;;;;;;;4.90;2.97;;;27.00;45.70;;;;;;5053444;28;20270;-68
2023/07/15 03:00:22;;;;;;;3.47;3.17;;;27.00;45.70;;;;;;5051677;28;20182;-67
2023/07/15 03:02:48;;;;;;;3.20;2.60;;;26.90;45.70;;;;;;5052819;28;20175;-68
2023/07/15 03:05:15;;;;;;;4.90;4.10;;;27.00;45.70;;;;;;5053009;28;20179;-68
2023/07/15 03:07:44;;;;;;;3.00;2.70;;;27.00;45.70;;;;;;5056560;28;20197;-68
2023/07/15 03:10:13;;;;;;;3.23;3.03;;;27.00;45.70;;;;;;5056928;28;20462;-67
2023/07/15 03:12:39;;;;;;;3.30;3.00;;;27.00;45.70;;;;;;5056422;28;20767;-68
2023/07/15 03:15:06;;;;;;;3.90;3.50;;;27.00;45.70;;;;;;5052628;28;20425;-68
2023/07/15 03:17:35;;;;;;;3.63;3.33;;;27.00;45.70;;;;;;5056295;28;20265;-68
2023/07/15 03:20:19;;;;;;;5.03;3.30;;;26.90;45.70;;;;;;5056365;28;20500;-68
2023/07/15 03:22:50;;;;;;;3.60;3.30;;;26.90;45.80;;;;;;5056375;28;20394;-67
2023/07/15 03:25:19;;;;;;;3.80;3.47;;;26.90;45.70;;;;;;5056324;28;20405;-67
2023/07/15 03:27:45;;;;;;;5.50;3.97;;;26.90;45.80;;;;;;5056144;28;20437;-67
2023/07/15 03:30:11;;;;;;;5.30;2.93;;;26.90;45.80;;;;;;5056130;28;20456;-68
2023/07/15 03:32:37;;;;;;;3.47;3.17;;;26.90;45.80;;;;;;5056018;28;20197;-68
2023/07/15 03:35:03;;;;;;;3.57;3.20;;;26.90;45.90;;;;;;5056041;28;20266;-68
2023/07/15 03:37:33;;;;;;;4.33;3.83;;;26.90;46.00;;;;;;5055835;28;20992;-68
2023/07/15 03:39:59;;;;;;;3.83;3.43;;;26.90;46.10;;;;;;5055932;28;20416;-68
2023/07/15 03:42:26;;;;;;;3.40;3.10;;;26.90;46.10;;;;;;5055983;28;20413;-68
2023/07/15 03:44:53;;;;;;;4.40;4.00;;;26.90;46.20;;;;;;5056194;28;20822;-67
2023/07/15 03:47:22;;;;;;;7.23;4.00;;;26.90;46.20;;;;;;5055682;28;20429;-67
2023/07/15 03:49:47;;;;;;;4.73;4.33;;;26.90;46.30;;;;;;5055562;28;20499;-68
2023/07/15 03:52:13;;;;;;;4.50;4.10;;;26.90;46.30;;;;;;5055828;28;20922;-68
2023/07/15 03:54:39;;;;;;;4.07;3.67;;;26.90;46.30;;;;;;5055927;28;20199;-67
2023/07/15 03:57:04;;;;;;;4.53;4.13;;;26.90;46.30;;;;;;5055806;28;20608;-68
2023/07/15 03:59:30;;;;;;;4.60;4.20;;;26.90;46.30;;;;;;5055805;28;20213;-68
2023/07/15 04:01:56;;;;;;;4.13;3.73;;;26.90;46.30;;;;;;5055619;28;20258;-68
2023/07/15 04:04:22;;;;;;;4.80;4.10;;;26.90;46.30;;;;;;5055513;28;20452;-68
2023/07/15 04:06:49;;;;;;;4.20;3.80;;;26.90;46.30;;;;;;5055361;28;20186;-68
2023/07/15 04:09:16;;;;;;;4.10;3.80;;;26.90;46.30;;;;;;5055802;28;20179;-67
2023/07/15 04:11:42;;;;;;;6.30;3.83;;;26.90;46.30;;;;;;5055533;28;20410;-68
2023/07/15 04:14:08;;;;;;;4.30;3.23;;;26.90;46.30;;;;;;5055572;28;20409;-68
2023/07/15 04:16:34;;;;;;;5.57;3.97;;;26.90;46.30;;;;;;5055673;28;21144;-68
2023/07/15 04:18:59;;;;;;;3.70;3.40;;;26.90;46.20;;;;;;5054384;28;20187;-68
2023/07/15 04:21:25;;;;;;;4.17;3.60;;;26.90;46.30;;;;;;5055375;28;20185;-68
2023/07/15 04:23:52;;;;;;;4.63;3.27;;;26.90;46.20;;;;;;5055247;28;20221;-67
2023/07/15 04:26:22;;;;;;;4.33;3.60;;;26.90;46.30;;;;;;5055091;28;20194;-68
2023/07/15 04:28:51;;;;;;;4.77;3.87;;;26.90;46.20;;;;;;5055002;28;20961;-68
2023/07/15 04:31:17;;;;;;;6.07;4.37;;;26.90;46.30;;;;;;5054878;28;20453;-68
2023/07/15 04:33:47;;;;;;;3.93;3.40;;;26.90;46.20;;;;;;5055071;28;20406;-67
2023/07/15 04:36:14;;;;;;;3.97;3.57;;;27.00;46.30;;;;;;5055433;28;20173;-67
2023/07/15 04:38:40;;;;;;;3.40;3.10;;;26.90;46.20;;;;;;5054961;28;20429;-68
2023/07/15 04:41:06;;;;;;;4.10;3.30;;;27.00;46.30;;;;;;5054826;28;20410;-68
2023/07/15 04:43:32;;;;;;;5.13;3.40;;;26.90;46.30;;;;;;5054597;28;20709;-68
2023/07/15 04:45:59;;;;;;;3.77;3.47;;;26.90;46.30;;;;;;5054717;28;20175;-68
2023/07/15 04:48:24;;;;;;;3.73;3.43;;;27.00;46.90;;;;;;5054531;28;20186;-68
2023/07/15 04:50:51;;;;;;;4.40;3.73;;;27.00;46.40;;;;;;5054588;28;20544;-68
2023/07/15 04:53:17;;;;;;;4.20;3.80;;;26.90;46.30;;;;;;5054485;28;20175;-67
2023/07/15 04:55:43;;;;;;;4.50;3.60;;;26.90;46.30;;;;;;5054578;28;20960;-68
2023/07/15 04:58:09;;;;;;;4.63;3.70;;;27.00;46.40;;;;;;5054331;28;20194;-68
2023/07/15 05:00:36;;;;;;;4.10;3.70;;;27.00;46.40;;;;;;5054678;28;20424;-68
2023/07/15 05:03:04;;;;;;;6.23;3.47;;;27.00;46.40;;;;;;5054635;28;20422;-67
2023/07/15 05:05:30;;;;;;;3.60;3.20;;;27.00;46.40;;;;;;5054919;28;20406;-67
2023/07/15 05:08:01;;;;;;;4.00;3.30;;;27.00;46.40;;;;;;5054422;28;20429;-66
2023/07/15 05:10:26;;;;;;;4.63;3.90;;;27.00;46.40;;;;;;5054803;28;20221;-66
2023/07/15 05:12:52;;;;;;;5.83;4.03;;;27.00;46.50;;;;;;5054789;28;20410;-67
2023/07/15 05:15:17;;;;;;;6.10;3.63;;;27.00;46.50;;;;;;5054880;28;20173;-67
2023/07/15 05:17:44;;;;;;;4.87;3.50;;;27.00;46.70;;;;;;5054299;28;20564;-67
2023/07/15 05:20:10;;;;;;;5.87;4.63;;;27.00;46.50;;;;;;5055276;28;20182;-66
2023/07/15 05:22:36;;;;;;;4.07;3.67;;;27.00;46.50;;;;;;5054589;28;20413;-67
2023/07/15 05:25:01;;;;;;;8.13;3.43;;;27.00;46.50;;;;;;5053418;28;20420;-66
2023/07/15 05:27:27;;;;;;;5.40;3.20;;;27.00;47.10;;;;;;5053216;28;20191;-67
2023/07/15 05:29:52;;;;;;;4.33;3.20;;;27.00;46.50;;;;;;5053497;28;20199;-67
2023/07/15 05:32:18;;;;;;;4.97;3.57;;;27.00;46.60;;;;;;5054520;28;20171;-67
2023/07/15 05:34:43;;;;;;;5.50;3.87;;;27.00;46.60;;;;;;5054501;28;20179;-67
2023/07/15 05:37:09;;;;;;;3.00;2.80;;;27.00;46.60;;;;;;5054762;28;20247;-68
2023/07/15 05:39:35;;;;;;;3.73;3.33;;;27.10;46.70;;;;;;5054742;28;20172;-67
2023/07/15 05:42:00;;;;;;;3.33;3.03;;;27.10;46.70;;;;;;5055075;28;20632;-67
2023/07/15 05:44:26;;;;;;;5.50;3.43;;;27.00;46.60;;;;;;5054954;28;20171;-67
2023/07/15 05:46:51;;;;;;;5.50;3.90;;;27.10;46.70;;;;;;5054304;28;20220;-68
2023/07/15 05:49:17;;;;;;;6.37;3.80;;;27.00;46.70;;;;;;5053715;28;20652;-67
2023/07/15 05:51:43;;;;;;;4.33;3.30;;;27.00;46.70;;;;;;5054175;28;20257;-68
2023/07/15 05:54:08;;;;;;;3.70;3.40;;;27.00;46.70;;;;;;5055681;28;20175;-67
2023/07/15 05:56:34;;;;;;;5.13;3.33;;;27.00;46.70;;;;;;5055842;28;20175;-67
2023/07/15 05:59:00;;;;;;;4.10;3.17;;;27.10;46.70;;;;;;5055833;28;20218;-68
2023/07/15 06:01:25;;;;;;;5.37;3.50;;;27.10;46.70;;;;;;5054724;28;20624;-67
2023/07/15 06:03:51;;;;;;;4.10;3.53;;;27.10;46.80;;;;;;5055617;28;20179;-67
2023/07/15 06:06:16;;;;;;;3.60;3.00;;;27.10;46.80;;;;;;5055726;28;20217;-67
2023/07/15 06:08:42;;;;;;;3.17;2.87;;;27.10;46.80;;;;;;5055123;28;20198;-67
2023/07/15 06:11:09;;;;;;;4.03;3.63;;;27.10;46.80;;;;;;5054917;28;20290;-67
2023/07/15 06:13:34;;;;;;;3.70;3.40;;;27.10;46.80;;;;;;5055080;28;20179;-67
2023/07/15 06:16:00;;;;;;;3.33;3.03;;;27.10;46.80;;;;;;5055105;28;20436;-67
2023/07/15 06:18:26;;;;;;;3.40;3.10;;;27.10;46.80;;;;;;5054967;28;20195;-66
2023/07/15 06:20:51;;;;;;;3.30;3.00;;;27.10;46.90;;;;;;5054600;28;20175;-66
2023/07/15 06:23:17;;;;;;;3.80;3.10;;;27.10;46.80;;;;;;5053534;28;20167;-67
2023/07/15 06:25:42;;;;;;;3.93;3.00;;;27.10;46.90;;;;;;5054369;28;20702;-67
2023/07/15 06:28:08;;;;;;;4.53;3.10;;;27.10;46.90;;;;;;5054088;28;20571;-68
2023/07/15 06:30:34;;;;;;;3.77;3.13;;;27.10;46.90;;;;;;5053123;28;20195;-68
2023/07/15 06:32:59;;;;;;;2.90;2.70;;;27.10;46.90;;;;;;5050709;28;20666;-68
2023/07/15 06:35:25;;;;;;;3.50;3.20;;;27.10;46.90;;;;;;5052916;28;20777;-67
2023/07/15 06:37:51;;;;;;;3.57;3.00;;;27.10;46.90;;;;;;5053104;28;20269;-67
2023/07/15 06:40:18;;;;;;;3.60;3.17;;;27.10;46.90;;;;;;5053467;28;20193;-68
2023/07/15 06:42:44;;;;;;;5.73;3.30;;;27.10;47.00;;;;;;5053648;28;20795;-67
2023/07/15 06:45:11;;;;;;;4.80;2.73;;;27.10;46.90;;;;;;5053745;28;20970;-67
2023/07/15 06:47:37;;;;;;;3.23;2.93;;;27.10;46.90;;;;;;5054049;28;20430;-67
2023/07/15 06:50:03;;;;;;;4.53;3.00;;;27.10;46.90;;;;;;5053430;28;20879;-67
2023/07/15 06:52:29;;;;;;;2.83;2.60;;;27.10;47.00;;;;;;5053494;28;20668;-67
2023/07/15 06:54:55;;;;;;;3.80;3.43;;;27.10;47.00;;;;;;5053518;28;20410;-67
2023/07/15 06:57:21;;;;;;;5.10;3.50;;;27.10;46.90;;;;;;5053037;28;20751;-68
2023/07/15 06:59:47;;;;;;;4.57;3.97;;;27.20;47.00;;;;;;5052943;28;20174;-67
2023/07/15 07:02:13;;;;;;;3.67;3.37;;;27.20;47.00;;;;;;5053154;28;20190;-67
2023/07/15 07:04:38;;;;;;;3.13;2.87;;;27.10;46.90;;;;;;5053124;28;20402;-67
2023/07/15 07:07:04;;;;;;;3.40;3.10;;;27.20;47.00;;;;;;5053287;28;20777;-67
2023/07/15 07:09:30;;;;;;;4.27;2.90;;;27.20;47.00;;;;;;5053013;28;20254;-67
2023/07/15 07:11:55;;;;;;;3.70;3.40;;;27.10;46.90;;;;;;5053172;28;20613;-66
2023/07/15 07:14:21;;;;;;;3.43;3.13;;;27.20;47.00;;;;;;5053304;28;20220;-67
2023/07/15 07:16:46;;;;;;;3.47;2.83;;;27.10;46.90;;;;;;5053245;28;20203;-67
2023/07/15 07:19:12;;;;;;;3.10;2.80;;;27.20;47.00;;;;;;5053540;28;20632;-67
2023/07/15 07:21:38;;;;;;;3.10;2.83;;;27.20;46.90;;;;;;5053387;28;20185;-67
2023/07/15 07:24:04;;;;;;;3.10;2.90;;;27.10;46.90;;;;;;5053749;28;20198;-67
2023/07/15 07:26:30;;;;;;;2.80;2.60;;;27.20;47.00;;;;;;5053393;28;20921;-67
2023/07/15 07:28:55;;;;;;;6.00;2.90;;;27.20;46.90;;;;;;5053057;28;20199;-67
2023/07/15 07:31:21;;;;;;;3.60;2.93;;;27.20;46.90;;;;;;5052979;28;20202;-67
2023/07/15 07:33:47;;;;;;;5.30;2.90;;;27.20;47.00;;;;;;5053006;28;20643;-66
2023/07/15 07:36:12;;;;;;;4.33;3.10;;;27.20;47.00;;;;;;5052739;28;20187;-66
2023/07/15 07:38:38;;;;;;;3.07;2.40;;;27.20;47.00;;;;;;5053555;28;20183;-66
2023/07/15 07:41:10;;;;;;;3.30;2.80;;;27.20;47.00;;;;;;5053780;28;20209;-66
2023/07/15 07:43:37;;;;;;;2.60;2.30;;;27.20;47.00;;;;;;5054672;28;20518;-67
2023/07/15 07:46:04;;;;;;;3.00;2.73;;;27.20;47.00;;;;;;5053770;28;20444;-67
2023/07/15 07:48:30;;;;;;;3.40;3.00;;;27.20;47.00;;;;;;5052644;28;20421;-66
2023/07/15 07:50:57;;;;;;;2.93;2.73;;;27.20;47.00;;;;;;5052975;28;20547;-65
2023/07/15 07:53:23;;;;;;;3.10;2.90;;;27.20;47.00;;;;;;5055174;28;20464;-66
2023/07/15 07:55:50;;;;;;;3.37;2.80;;;27.20;46.90;;;;;;5056755;28;20934;-67
2023/07/15 07:58:16;;;;;;;3.17;2.80;;;27.20;47.10;;;;;;5055845;28;20183;-66
2023/07/15 08:00:41;;;;;;;3.03;2.80;;;27.20;47.10;;;;;;5055279;28;20409;-65
2023/07/15 08:03:07;;;;;;;2.67;2.47;;;27.20;47.00;;;;;;5055066;28;20183;-66
2023/07/15 08:05:32;;;;;;;3.30;3.00;;;27.20;47.00;;;;;;5053868;28;20181;-66
2023/07/15 08:07:58;;;;;;;3.60;2.70;;;27.20;47.10;;;;;;5055582;28;20591;-66
2023/07/15 08:10:24;;;;;;;3.10;2.80;;;27.20;47.10;;;;;;5055900;28;20199;-66
2023/07/15 08:12:49;;;;;;;3.80;2.63;;;27.30;47.20;;;;;;5055648;28;20254;-66
2023/07/15 08:15:15;;;;;;;2.70;2.50;;;27.20;47.10;;;;;;5055206;28;20261;-66
2023/07/15 08:17:40;;;;;;;3.27;2.97;;;27.30;47.20;;;;;;5055338;28;20565;-66
2023/07/15 08:20:10;;;;;;;3.17;2.80;;;27.30;47.20;;;;;;5055526;28;20193;-66
2023/07/15 08:22:35;;;;;;;3.13;2.80;;;27.30;47.20;;;;;;5055331;28;20179;-66
2023/07/15 08:25:01;;;;;;;3.37;2.93;;;27.30;47.20;;;;;;5055263;28;20933;-66
2023/07/15 08:27:26;;;;;;;3.20;2.30;;;27.30;47.20;;;;;;5054987;28;20260;-66
2023/07/15 08:29:52;;;;;;;3.17;2.77;;;27.30;47.20;;;;;;5055171;28;20218;-66
2023/07/15 08:32:18;;;;;;;2.90;2.70;;;27.30;47.20;;;;;;5053818;28;20175;-66
2023/07/15 08:34:59;;;;;;;2.63;2.40;;;27.30;47.20;;;;;;5055220;28;20651;-66
2023/07/15 08:37:26;;;;;;;3.00;2.77;;;27.30;47.20;;;;;;5054979;28;20186;-67
2023/07/15 08:39:52;;;;;;;2.87;2.63;;;27.30;47.20;;;;;;5055011;28;20496;-66
2023/07/15 08:42:19;;;;;;;3.90;3.10;;;27.30;47.20;;;;;;5054972;28;20504;-66
2023/07/15 08:44:49;;;;;;;2.40;2.20;;;27.30;47.20;;;;;;5055443;28;20263;-66
2023/07/15 08:47:22;;;;;;;2.53;2.33;;;27.30;47.20;;;;;;5054765;28;20429;-66
2023/07/15 08:49:49;;;;;;;2.63;2.43;;;27.30;47.20;;;;;;5053529;28;20499;-66
2023/07/15 08:52:22;;;;;;;2.60;2.40;;;27.30;47.30;;;;;;5053569;28;20492;-67
2023/07/15 08:54:49;;;;;;;2.97;2.60;;;27.30;47.30;;;;;;5054918;28;20414;-66
2023/07/15 08:57:18;;;;;;;2.63;2.40;;;27.30;47.20;;;;;;5054531;28;20426;-66
2023/07/15 08:59:48;;;;;;;2.80;2.60;;;27.30;47.20;;;;;;5049430;28;20460;-66
2023/07/15 09:02:14;;;;;;;3.40;2.90;;;27.30;47.20;;;;;;5049438;28;21012;-66
2023/07/15 09:04:39;;;;;;;2.70;2.50;;;27.30;47.20;;;;;;5052921;28;20402;-67
2023/07/15 09:07:06;;;;;;;2.70;2.43;;;27.30;47.30;;;;;;5052968;28;20190;-66
2023/07/15 09:09:35;;;;;;;3.10;2.60;;;27.30;47.30;;;;;;5053579;28;20262;-66
2023/07/15 09:12:11;;;;;;;2.80;2.60;;;27.30;47.30;;;;;;5054588;28;20402;-66
2023/07/15 09:14:44;;;;;;;2.80;2.50;;;27.40;47.30;;;;;;5054313;28;20381;-66
2023/07/15 09:17:15;;;;;;;2.70;2.50;;;27.40;47.30;;;;;;5054420;28;20425;-66
2023/07/15 09:19:41;;;;;;;2.60;2.40;;;27.30;47.30;;;;;;5054622;28;20891;-66
2023/07/15 09:22:08;;;;;;;3.03;2.83;;;27.30;47.30;;;;;;5054786;28;20408;-67
2023/07/15 09:24:37;;;;;;;2.33;2.10;;;27.30;47.30;;;;;;5053207;28;20191;-66
2023/07/15 09:27:03;;;;;;;2.77;2.57;;;27.30;47.30;;;;;;5054431;28;20409;-66
2023/07/15 09:29:29;;;;;;;2.57;2.37;;;27.30;47.30;;;;;;5054116;28;20449;-66
2023/07/15 09:31:55;;;;;;;2.63;2.43;;;27.40;47.30;;;;;;5054447;28;20437;-66
2023/07/15 09:34:22;;;;;;;3.60;2.37;;;27.30;47.30;;;;;;5054050;28;20451;-67
2023/07/15 09:36:48;;;;;;;2.53;2.33;;;27.40;47.30;;;;;;5053813;28;20412;-67
2023/07/15 09:39:17;;;;;;;2.40;2.20;;;27.40;47.40;;;;;;5054032;28;20417;-67
2023/07/15 09:41:43;;;;;;;2.60;2.40;;;27.40;47.30;;;;;;5053891;28;20849;-66
2023/07/15 09:44:10;;;;;;;2.60;2.40;;;27.30;47.30;;;;;;5046650;28;20513;-66
2023/07/15 09:46:36;;;;;;;2.40;2.13;;;27.40;47.30;;;;;;5051067;28;20504;-66
2023/07/15 09:49:02;;;;;;;2.67;2.47;;;27.40;47.40;;;;;;5052637;28;20464;-65
2023/07/15 09:51:28;;;;;;;2.50;2.30;;;27.40;47.40;;;;;;5051233;28;20461;-65
2023/07/15 09:53:55;;;;;;;2.90;2.60;;;27.40;47.40;;;;;;5052651;28;20178;-65
2023/07/15 09:56:34;;;;;;;2.63;2.43;;;27.40;47.40;;;;;;5048782;28;20422;-65
2023/07/15 09:59:16;;;;;;;2.70;2.50;;;27.40;47.40;;;;;;5046387;28;20444;-65
2023/07/15 10:01:49;;;;;;;2.43;2.10;;;27.40;47.40;;;;;;5047535;28;20433;-65
2023/07/15 10:04:25;;;;;;;2.20;2.00;;;27.40;47.40;;;;;;5053182;28;20420;-66
2023/07/15 10:06:51;;;;;;;4.03;2.43;;;27.40;47.40;;;;;;5052230;28;20409;-66
2023/07/15 10:09:18;;;;;;;3.27;2.70;;;27.40;47.40;;;;;;5052760;28;20942;-66
2023/07/15 10:11:45;;;;;;;2.67;2.47;;;27.40;47.40;;;;;;5052963;28;20488;-65
2023/07/15 10:14:11;;;;;;;3.23;2.93;;;27.40;47.40;;;;;;5052904;28;20401;-66
2023/07/15 10:16:37;;;;;;;4.00;3.10;;;27.40;47.40;;;;;;5052537;28;20404;-64
2023/07/15 10:19:03;;;;;;;3.47;2.97;;;27.40;47.40;;;;;;5053055;28;20421;-65
2023/07/15 10:21:29;;;;;;;5.03;3.07;;;27.40;47.40;;;;;;5053054;28;20405;-65
2023/07/15 10:24:09;;;;;;;3.20;2.90;;;27.40;47.40;;;;;;5053403;28;20195;-65
2023/07/15 10:26:35;;;;;;;2.93;2.50;;;27.40;47.40;;;;;;5053285;28;20654;-65
2023/07/15 10:29:02;;;;;;;4.23;3.60;;;27.40;47.40;;;;;;5053257;28;20517;-65
2023/07/15 10:31:28;;;;;;;3.20;2.90;;;27.40;47.40;;;;;;5052969;28;20194;-65
2023/07/15 10:33:59;;;;;;;2.97;2.67;;;27.40;47.50;;;;;;5052779;28;20907;-65
2023/07/15 10:36:41;;;;;;;3.40;3.00;;;27.40;47.40;;;;;;5052819;28;20171;-65
2023/07/15 10:39:19;;;;;;;8.70;5.23;;;27.40;47.50;;;;;;5052614;28;20492;-66
2023/07/15 10:41:53;;;;;;;6.03;3.83;;;27.40;47.50;;;;;;5052759;28;20471;-65
2023/07/15 10:44:24;;;;;;;6.43;4.07;;;27.40;47.50;;;;;;5053113;28;20397;-66
2023/07/15 10:46:59;;;;;;;8.37;6.00;;;27.40;47.50;;;;;;5054439;28;20956;-66
2023/07/15 10:49:25;;;;;;;6.20;4.80;;;27.40;47.50;;;;;;5054167;28;20438;-66
2023/07/15 10:51:54;;;;;;;5.60;5.00;;;27.40;47.50;;;;;;5053987;28;20461;-66
2023/07/15 10:54:26;;;;;;;6.17;4.97;;;27.40;47.50;;;;;;5052573;28;20586;-66
2023/07/15 10:56:53;;;;;;;5.60;4.67;;;27.40;47.50;;;;;;5054464;28;20437;-66
2023/07/15 10:59:18;;;;;;;6.13;5.53;;;27.40;47.50;;;;;;5055395;28;20406;-66
2023/07/15 11:01:45;;;;;;;9.80;6.20;;;27.40;47.40;;;;;;5055309;28;20432;-65
2023/07/15 11:04:11;;;;;;;9.10;6.73;;;27.40;47.40;;;;;;5055430;28;20209;-66
2023/07/15 11:06:37;;;;;;;6.67;5.87;;;27.40;47.40;;;;;;5055216;28;20443;-66
2023/07/15 11:09:20;;;;;;;10.73;6.70;;;27.40;47.40;;;;;;5055389;28;20482;-66
2023/07/15 11:11:47;;;;;;;6.33;5.40;;;27.50;47.50;;;;;;5054163;28;20453;-66
2023/07/15 11:14:29;;;;;;;6.53;5.87;;;27.40;47.40;;;;;;5055112;28;20473;-66
2023/07/15 11:16:57;;;;;;;6.90;6.10;;;27.50;47.50;;;;;;5055061;28;20455;-66
2023/07/15 11:19:26;;;;;;;8.00;5.27;;;27.50;47.50;;;;;;5055891;28;20401;-66
2023/07/15 11:21:52;;;;;;;7.27;6.50;;;27.50;47.50;;;;;;5054933;28;20504;-66
2023/07/15 11:24:20;;;;;;;7.27;6.03;;;27.50;47.50;;;;;;5053995;28;20418;-66
2023/07/15 11:26:45;;;;;;;7.50;5.60;;;27.40;47.50;;;;;;5054832;28;20425;-66
2023/07/15 11:29:24;;;;;;;7.93;6.17;;;27.40;47.50;;;;;;5059485;28;20467;-66
2023/07/15 11:31:52;;;;;;;6.07;5.30;;;27.50;47.60;;;;;;5059011;28;20205;-66
2023/07/15 11:34:23;;;;;;;6.50;5.77;;;27.40;47.50;;;;;;5059102;28;20436;-66
2023/07/15 11:36:50;;;;;;;8.43;5.70;;;27.50;47.60;;;;;;5058519;28;20465;-66
2023/07/15 11:39:16;;;;;;;7.10;5.63;;;27.50;47.60;;;;;;5058077;28;20401;-65
2023/07/15 11:41:43;;;;;;;9.07;6.30;;;27.40;47.50;;;;;;5058197;28;20413;-66
2023/07/15 11:44:35;;;;;;;6.87;6.13;;;27.50;47.60;;;;;;5058066;28;20834;-66
2023/07/15 11:47:01;;;;;;;6.30;5.37;;;27.50;47.70;;;;;;5056888;28;20426;-66
2023/07/15 11:49:27;;;;;;;6.33;5.73;;;27.50;47.60;;;;;;5057826;28;20429;-66
2023/07/15 11:51:56;;;;;;;7.40;6.27;;;27.50;47.60;;;;;;5057630;28;20680;-66
2023/07/15 11:54:22;;;;;;;7.20;6.30;;;27.50;47.60;;;;;;5057820;28;20167;-65
2023/07/15 11:56:48;;;;;;;7.53;5.93;;;27.50;47.60;;;;;;5058291;28;20780;-66
2023/07/15 11:59:26;;;;;;;6.53;5.93;;;27.50;47.60;;;;;;5057482;28;20163;-66
2023/07/15 12:01:53;;;;;;;6.93;6.23;;;27.50;47.60;;;;;;5057735;28;20504;-66
2023/07/15 12:04:21;;;;;;;8.60;6.73;;;27.50;47.60;;;;;;5057335;28;20401;-65
2023/07/15 12:06:49;;;;;;;9.00;6.33;;;27.50;47.60;;;;;;5057312;28;20467;-66
2023/07/15 12:09:15;;;;;;;6.37;5.63;;;27.50;47.60;;;;;;5057873;28;20448;-65
2023/07/15 12:11:41;;;;;;;8.60;7.13;;;27.50;47.60;;;;;;5057998;28;20992;-66
2023/07/15 12:14:10;;;;;;;7.73;5.33;;;27.50;47.70;;;;;;5057015;28;20463;-64
2023/07/15 12:16:38;;;;;;;8.27;5.73;;;27.50;47.70;;;;;;5057257;28;20415;-66
2023/07/15 12:19:05;;;;;;;8.50;5.67;;;27.50;47.70;;;;;;5056761;28;20430;-66
2023/07/15 12:21:31;;;;;;;7.10;5.30;;;27.50;47.70;;;;;;5056666;28;20410;-66
2023/07/15 12:23:57;;;;;;;7.30;6.43;;;27.50;47.70;;;;;;5056560;28;20414;-66
2023/07/15 12:26:23;;;;;;;8.57;6.03;;;27.50;47.70;;;;;;5056645;28;20427;-66
2023/07/15 12:28:49;;;;;;;6.30;5.70;;;27.50;47.70;;;;;;5056836;28;20417;-66
2023/07/15 12:31:16;;;;;;;8.73;6.43;;;27.50;47.70;;;;;;5056854;28;20203;-66
2023/07/15 12:33:42;;;;;;;8.43;6.80;;;27.60;47.70;;;;;;5056923;28;20206;-66
2023/07/15 12:36:11;;;;;;;7.40;6.67;;;27.50;47.80;;;;;;5055010;28;20409;-66
2023/07/15 12:38:37;;;;;;;8.53;5.30;;;27.60;47.80;;;;;;5055541;28;20421;-66
2023/07/15 12:41:04;;;;;;;6.30;5.47;;;27.60;47.80;;;;;;5057080;28;20408;-66
2023/07/15 12:43:30;;;;;;;8.60;5.97;;;27.60;47.80;;;;;;5056198;28;20420;-66
2023/07/15 12:45:56;;;;;;;8.17;5.97;;;27.50;47.80;;;;;;5056332;28;20401;-66
2023/07/15 12:48:22;;;;;;;7.27;5.70;;;27.60;47.80;;;;;;5056682;28;20425;-66